Jim Hamilton L.B. Owens Airport
KCUB : now visible

Aeroporto :











RITROVATECI SU...

 
LOGIN :

Iscrizione | Disclaimer

   EN    FR    IT 

 









Sommario :    VFR   VFR Marginale   IFR   IFR Intensivo   IFR Molto Intensivo
Visibilità : 
Base nubi : 
>= 8 km
>= 3000ft
5 / 8 km
1000 / 3000 ft
1500m / 5 km
500 / 1000 ft
800 / 1500m
200 / 500 ft
< 800m
< 200 ft
Simboli :   Temporali  Nebbia  Neve Forte  Precipitazioni Forti  Vento > 20 kt






- Altitudine del aeroporto : 193 ft


KCUB - Jim Hamilton L.B. Owens

ULTIMO METAR :
  • 072053Z AUTO VRB03KT 10SM CLR 17/04 A3027 RMK AO2 SLP250 T01720044 53002

METARs OBSOLETI :
  • 071953Z AUTO VRB03KT 10SM CLR 18/04 A3026 RMK AO2 SLP246 T01780044
  • 071853Z AUTO VRB06KT 10SM CLR 17/05 A3026 RMK AO2 SLP245 T01720050

TAF KCUB
Valido dal 07 a 18 ore il 08 a 18 ore UTC


071735Z 0718/0818 06007KT P6SM SKC
FM072300 00000KT P6SM FEW250
FM081500 07004KT P6SM FEW250



MetMap, La meteo Aeronautica in un colpo d'occhio ! - Copyright ORBIFLY Dicembre 2007 - Disclaimer

ORBIFLY MET'MAP TEAM :

Programmazione e sviluppo : Alexandra Zaïnal
Concezione : Baudouin d'Aumeries
Aiuto per la programmazione : Marc-Olivier Méhu
Supporto tecnico e logistico : Manuel Goepfert
Aiuto per la traduzione : Arnaldo La Scala

Contatto : metmap@orbifly.com




FONTI E CREDITI :

   NOAA       Earth
Advisory